New Ashford, Massachusetts
Current Conditions -  °F | °C
As of 7:10 AM on Thursday 23 Oct 2014 (Local Time) from KAQW Reporting Station
Moderate Rain Moderate Rain  
Wind Chill: 40°   Ceiling: 2700
Heat Index: 44°   Visibility: 3mi
Dew Point: 42°   Wind: 8mph
Humidity: 93%   Direction: 270°W
Pressure: 29.82"   Gusts: NA
Location:  42.5714°N, 73.2564°W
Report Text: KAQW 231110Z AUTO 27007KT 3SM RA BR FEW006 OVC027 07/06 A2982 RMK AO2 P0005 T00670056
Loading
Personal Weather Stations






























Interactive Weather Map
Tropical Storm Tracking
New forecast layout! Learn more

10-Day Weather Forecast

Advertisements
Track Severe Weather on mobile